• Join FlightAware (Why Join?)
  • Login
  • US Flag 
01:52PM EDT


 

Airport Tracker/Info


-or-


 

Live Flight TrackerFlight Track Log ✈ ASH3770 ✈ 21-Apr-2013 ✈ KIAD - KAUS

Flight Track Log - Related Links

Times and Time Zones

All times are in EDT time to prevent confusion due to time zone crossing. See the ASH3770 flight status page for this flight to view local times or setup timezone preferences in your user account.

Time Position Orientation Groundspeed Altitude Reporting Facility
EDT Latitude Longitude Course Direction KTS MPH feet Rate Location/Type
12:58PM 38.9500 -77.5000 252° West 172 198 1,600  Level Potomac TRACON
12:59PM 38.9333 -77.5667 252° West 218 251 3,600 2,100 Climbing Potomac TRACON
01:00PM 38.9192 -77.6272 253° West 229 264 4,900 2,340 Climbing Washington Center
01:01PM 38.9114 -77.7097 263° West 248 285 7,300 2,400 Climbing Washington Center
01:02PM 38.9014 -77.8028 262° West 255 293 9,800 2,100 Climbing Washington Center
01:03PM 38.8889 -77.9092 261° West 280 322 11,600 1,860 Climbing Washington Center
01:04PM 38.8764 -78.0208 262° West 306 352 13,600 2,100 Climbing Washington Center
01:05PM 38.8636 -78.1350 262° West 323 372 15,900 1,920 Climbing Washington Center
01:06PM 38.8547 -78.2572 265° West 335 386 17,500 1,500 Climbing Washington Center
01:07PM 38.8539 -78.3828 270° West 341 392 18,900 1,500 Climbing Washington Center
01:08PM 38.8531 -78.5078 270° West 348 400 20,600 1,800 Climbing Washington Center
01:09PM 38.8522 -78.6306 270° West 348 400 22,600 1,500 Climbing Washington Center
01:10PM 38.8486 -78.7608 268° West 353 406 23,600 1,200 Climbing Washington Center
01:11PM 38.8472 -78.8917 269° West 363 418 25,000 1,200 Climbing Washington Center
01:12PM 38.8458 -79.0194 269° West 368 423 26,100 1,080 Climbing Washington Center
01:13PM 38.8439 -79.1553 269° West 368 423 27,200 1,020 Climbing Washington Center
01:14PM 38.8256 -79.2822 260° West 368 423 28,200 1,200 Climbing Washington Center
01:15PM 38.8047 -79.4117 258° West 373 429 29,600 1,380 Climbing Washington Center
01:16PM 38.7819 -79.5411 257° West 373 429 31,000 1,200 Climbing Washington Center
01:17PM 38.7589 -79.6678 257° West 373 429 32,100 840 Climbing Washington Center
01:19PM 38.7242 -79.8447 256° West 351 404 33,200 600 Climbing Indianapolis Center
01:20PM 38.7011 -79.9686 257° West 358 412 33,800 360 Climbing Indianapolis Center
01:21PM 38.6775 -80.0958 257° West 365 420 34,000 60 Climbing Indianapolis Center
01:22PM 38.6528 -80.2269 256° West 378 435 34,000  Level Indianapolis Center
01:23PM 38.6281 -80.3603 257° West 384 442 34,000  Level Indianapolis Center
01:24PM 38.6022 -80.4911 256° West 379 436 34,000  Level Indianapolis Center
01:25PM 38.5672 -80.6450 254° West 377 434 34,000  Level Indianapolis Center
01:26PM 38.5347 -80.7706 252° West 373 429 34,000  Level Indianapolis Center
01:27PM 38.5025 -80.8975 252° West 374 430 34,000  Level Indianapolis Center
01:28PM 38.4689 -81.0264 252° West 380 437 34,000  Level Indianapolis Center
01:29PM 38.4361 -81.1572 252° West 384 442 34,000  Level Indianapolis Center
01:30PM 38.4019 -81.2861 251° West 380 437 34,000  Level Indianapolis Center
01:31PM 38.3683 -81.4178 252° West 386 444 34,000  Level Indianapolis Center
01:32PM 38.3344 -81.5475 252° West 383 441 34,000  Level Indianapolis Center
01:33PM 38.3000 -81.6800 252° West 389 448 34,000 240 Level Indianapolis Center
01:34PM 38.2656 -81.8119 252° West 392 451 34,500 660 Climbing Indianapolis Center
01:35PM 38.2242 -81.9694 252° West 390 449 35,400 720 Climbing Indianapolis Center
01:36PM 38.1892 -82.0989 251° West 387 445 36,000 240 Climbing Indianapolis Center
01:37PM 38.1547 -82.2283 251° West 385 443 36,000  Level Indianapolis Center
01:38PM 38.1200 -82.3583 251° West 386 444 36,000  Level Indianapolis Center
01:39PM 38.0872 -82.4828 252° West 377 434 36,000  Level Indianapolis Center
01:40PM 38.0522 -82.6089 251° West 379 436 36,000  Level Indianapolis Center
01:41PM 38.0111 -82.7600 251° West 387 445 36,000  Level Indianapolis Center
01:42PM 37.9753 -82.8894 251° West 389 448 36,000  Level Indianapolis Center
01:43PM 37.9406 -83.0181 251° West 386 444 36,000  Level Indianapolis Center
01:44PM 37.9050 -83.1447 250° West 383 441 36,000  Level Indianapolis Center
01:45PM 37.8697 -83.2692 250° West 378 435 36,000  Level Indianapolis Center
01:46PM 37.8356 -83.3933 251° West 376 433 36,000  Level Indianapolis Center
01:47PM 37.7931 -83.5406 250° West 380 437 36,000  Level Indianapolis Center
01:48PM 37.7578 -83.6656 250° West 380 437 36,000  Level Indianapolis Center
01:49PM 37.7219 -83.7917 250° West 380 437 36,000  Level Indianapolis Center
01:50PM 37.6856 -83.9194 250° West 386 444 36,000  Level Indianapolis Center
01:51PM 37.6472 -84.0511 250° West 396 456 36,000  Level Indianapolis Center
01:53PM 37.6103 -84.1814 250° West 395 455 36,000  Level Indianapolis Center
01:54PM 37.5664 -84.3297 250° West 390 449 36,000  Level Indianapolis Center
01:55PM 37.5308 -84.4575 251° West 387 445 36,000  Level Indianapolis Center
01:56PM 37.4925 -84.5844 249° West 387 445 36,000  Level Indianapolis Center
01:57PM 37.4544 -84.7111 249° West 387 445 36,000  Level Indianapolis Center
01:58PM 37.4178 -84.8383 250° West 388 447 36,000  Level Indianapolis Center
01:59PM 37.3794 -84.9667 249° West 390 449 36,000  Level Indianapolis Center
02:00PM 37.3356 -85.1156 250° West 391 450 36,000  Level Indianapolis Center
02:01PM 37.2972 -85.2433 249° West 391 450 36,000  Level Indianapolis Center
02:02PM 37.2578 -85.3722 249° West 394 453 36,000  Level Indianapolis Center
02:03PM 37.2183 -85.5011 249° West 395 455 36,000  Level Indianapolis Center
02:04PM 37.1814 -85.6250 250° West 396 456 36,000  Level Indianapolis Center
02:04PM 37.1575 -85.7111 251° West 401 461 36,000  Level Memphis Center
02:05PM 37.1164 -85.8411 248° West 401 461 36,000  Level Memphis Center
02:06PM 37.0733 -85.9811 249° West 395 455 36,000  Level Memphis Center
02:07PM 37.0322 -86.1108 248° West 401 461 36,000  Level Memphis Center
02:08PM 36.9925 -86.2375 249° West 401 461 36,000  Level Memphis Center
02:09PM 36.9511 -86.3694 249° West 401 461 36,000  Level Memphis Center
02:10PM 36.9028 -86.4914 244° Southwest 400 460 36,000  Level Memphis Center
02:11PM 36.8419 -86.6083 237° Southwest 407 468 36,000  Level Memphis Center
02:12PM 36.7786 -86.7228 235° Southwest 407 468 36,000  Level Memphis Center
02:13PM 36.7172 -86.8392 237° Southwest 407 468 36,000  Level Memphis Center
02:14PM 36.6558 -86.9558 237° Southwest 407 468 36,000  Level Memphis Center
02:15PM 36.5944 -87.0719 237° Southwest 407 468 36,000  Level Memphis Center
02:16PM 36.5308 -87.1908 236° Southwest 407 468 36,000  Level Memphis Center
02:17PM 36.4669 -87.3069 236° Southwest 407 468 36,000  Level Memphis Center
02:18PM 36.4011 -87.4253 235° Southwest 407 468 36,000  Level Memphis Center
02:19PM 36.3372 -87.5411 236° Southwest 407 468 36,000  Level Memphis Center
02:20PM 36.2731 -87.6567 235° Southwest 407 468 36,000  Level Memphis Center
02:21PM 36.2147 -87.7614 235° Southwest 407 468 36,000  Level Memphis Center
02:22PM 36.1525 -87.8764 236° Southwest 407 468 36,000  Level Memphis Center
02:23PM 36.0881 -87.9914 235° Southwest 407 468 36,000  Level Memphis Center
02:24PM 36.0214 -88.1114 236° Southwest 412 474 36,000  Level Memphis Center
02:25PM 35.9586 -88.2183 234° Southwest 406 467 36,000  Level Memphis Center
02:26PM 35.8919 -88.3353 235° Southwest 406 467 36,000  Level Memphis Center
02:27PM 35.8269 -88.4547 236° Southwest 411 473 36,000  Level Memphis Center
02:28PM 35.7539 -88.5817 235° Southwest 411 473 36,000  Level Memphis Center
02:29PM 35.6886 -88.6981 235° Southwest 416 479 36,000  Level Memphis Center
02:30PM 35.6214 -88.8119 234° Southwest 416 479 36,000  Level Memphis Center
02:31PM 35.5581 -88.9228 235° Southwest 411 473 36,000  Level Memphis Center
02:32PM 35.4947 -89.0386 236° Southwest 406 467 36,000  Level Memphis Center
02:33PM 35.4311 -89.1517 235° Southwest 406 467 36,000  Level Memphis Center
02:34PM 35.3656 -89.2622 234° Southwest 406 467 36,000  Level Memphis Center
02:35PM 35.2997 -89.3775 235° Southwest 406 467 36,000  Level Memphis Center
02:36PM 35.2358 -89.4903 235° Southwest 406 467 36,000  Level Memphis Center
02:37PM 35.1697 -89.6053 235° Southwest 412 474 36,000  Level Memphis Center
02:38PM 35.1058 -89.7200 236° Southwest 417 480 36,000  Level Memphis Center
02:39PM 35.0375 -89.8347 234° Southwest 417 480 36,000  Level Memphis Center
02:40PM 34.9711 -89.9517 235° Southwest 422 486 36,000  Level Memphis Center
02:41PM 34.9028 -90.0658 234° Southwest 422 486 36,000  Level Memphis Center
02:42PM 34.8342 -90.1800 234° Southwest 422 486 36,000  Level Memphis Center
02:43PM 34.7653 -90.2939 234° Southwest 428 493 36,000  Level Memphis Center
02:44PM 34.7069 -90.3900 234° Southwest 421 484 36,000  Level Memphis Center
02:45PM 34.6381 -90.5036 234° Southwest 421 484 36,000  Level Memphis Center
02:46PM 34.5731 -90.6119 234° Southwest 413 475 36,000  Level Memphis Center
02:47PM 34.5081 -90.7225 235° Southwest 407 468 36,000  Level Memphis Center
02:48PM 34.4411 -90.8306 233° Southwest 407 468 36,000  Level Memphis Center
02:49PM 34.3758 -90.9408 234° Southwest 407 468 36,000  Level Memphis Center
02:50PM 34.3106 -91.0486 234° Southwest 407 468 36,000  Level Memphis Center
02:51PM 34.2369 -91.1661 233° Southwest 407 468 36,000  Level Memphis Center
02:52PM 34.1694 -91.2733 233° Southwest 407 468 36,000  Level Memphis Center
02:53PM 34.1017 -91.3856 234° Southwest 407 468 36,000  Level Memphis Center
02:54PM 34.0361 -91.4953 234° Southwest 407 468 36,000  Level Memphis Center
02:55PM 33.9703 -91.6019 233° Southwest 401 461 36,000  Level Memphis Center
02:56PM 33.9025 -91.7061 232° Southwest 406 467 36,000  Level Memphis Center
02:59PM 33.7542 -91.9553 234° Southwest 390 449 36,000  Level Fort Worth Center
03:00PM 33.6858 -92.0642 233° Southwest 402 463 36,000  Level Fort Worth Center
03:01PM 33.6236 -92.1703 235° Southwest 407 468 36,000  Level Fort Worth Center
03:02PM 33.5508 -92.2792 231° Southwest 407 468 36,000  Level Fort Worth Center
03:03PM 33.4842 -92.3878 234° Southwest 407 468 36,000  Level Fort Worth Center
03:04PM 33.4178 -92.4961 234° Southwest 407 468 36,000  Level Fort Worth Center
03:05PM 33.3508 -92.6017 233° Southwest 407 468 36,000  Level Fort Worth Center
03:06PM 33.2975 -92.6842 232° Southwest 402 463 36,000  Level Fort Worth Center
03:07PM 33.2331 -92.8042 237° Southwest 402 463 36,000  Level Fort Worth Center
03:08PM 33.1978 -92.9228 250° West 390 449 36,000  Level Fort Worth Center
03:09PM 33.1581 -93.0414 248° West 390 449 36,000  Level Fort Worth Center
03:10PM 33.1183 -93.1600 248° West 390 449 36,000  Level Fort Worth Center
03:11PM 33.0786 -93.2783 248° West 385 443 36,000  Level Fort Worth Center
03:12PM 33.0386 -93.3992 248° West 385 443 36,000  Level Fort Worth Center
03:13PM 32.9964 -93.5175 247° West 385 443 36,000  Level Fort Worth Center
03:14PM 32.9583 -93.6353 249° West 385 443 36,000  Level Fort Worth Center
03:15PM 32.9158 -93.7536 247° West 390 449 36,000  Level Fort Worth Center
03:16PM 32.8756 -93.8764 249° West 390 449 36,000  Level Fort Worth Center
03:17PM 32.8369 -93.9942 249° West 390 449 36,000  Level Fort Worth Center
03:18PM 32.7942 -94.1119 247° West 390 449 36,000  Level Fort Worth Center
03:19PM 32.7536 -94.2319 248° West 395 455 36,000  Level Fort Worth Center
03:20PM 32.7106 -94.3494 246° West 395 455 36,000  Level Fort Worth Center
03:21PM 32.6717 -94.4692 249° West 395 455 36,000  Level Fort Worth Center
03:22PM 32.6306 -94.5839 247° West 395 455 36,000  Level Fort Worth Center
03:23PM 32.5892 -94.7011 247° West 395 455 36,000  Level Fort Worth Center
03:24PM 32.5481 -94.8256 249° West 383 441 36,000  Level Fort Worth Center
03:25PM 32.5064 -94.9403 247° West 378 435 36,000  Level Fort Worth Center
03:26PM 32.4711 -95.0519 249° West 378 435 36,000  Level Fort Worth Center
03:27PM 32.4314 -95.1636 247° West 378 435 36,000  Level Fort Worth Center
03:28PM 32.3956 -95.2656 247° West 373 429 36,000  Level Fort Worth Center
03:29PM 32.3536 -95.3819 247° West 380 437 36,000  Level Fort Worth Center
03:30PM 32.3136 -95.4961 248° West 381 438 36,000  Level Fort Worth Center
03:31PM 32.2714 -95.6100 246° West 386 444 36,000  Level Fort Worth Center
03:32PM 32.2314 -95.7286 248° West 381 438 36,000  Level Fort Worth Center
03:33PM 32.1847 -95.8472 245° Southwest 391 450 36,000  Level Fort Worth Center
03:34PM 32.1406 -95.9756 248° West 391 450 36,000  Level Fort Worth Center
03:35PM 32.0978 -96.0892 246° West 392 451 36,000  Level Fort Worth Center
03:36PM 32.0572 -96.2025 247° West 387 445 36,000  Level Fort Worth Center
03:37PM 32.0164 -96.3156 247° West 378 435 36,000  Level Fort Worth Center
03:38PM 31.9756 -96.4239 246° West 371 427 36,000  Level Fort Worth Center
03:39PM 31.9367 -96.5297 247° West 366 421 36,000  Level Fort Worth Center
03:40PM 31.8978 -96.6425 248° West 366 421 36,000  Level Fort Worth Center
03:41PM 31.8567 -96.7556 247° West 372 428 36,000 -120 Level Fort Worth Center
03:42PM 31.8133 -96.8683 246° West 378 435 35,800 -1,020 Descending Fort Worth Center
03:43PM 31.7719 -96.9833 247° West 378 435 34,000 -6,960 Descending Fort Worth Center
03:44PM 31.7306 -97.0908 246° West 373 429 22,000 -1,560 Descending Fort Worth Center
03:45PM 31.6767 -97.1839 236° Southwest 378 435 30,900 4,680 Climbing Fort Worth Center
03:45PM 31.6183 -97.2297 214° Southwest 405 466 29,600 -2,100 Descending Houston Center
03:46PM 31.4953 -97.2467 187° South 445 512 27,500 -2,220 Descending Houston Center
03:47PM 31.3697 -97.2303 174° South 449 517 25,100 -2,400 Descending Houston Center
03:49PM 31.2422 -97.2139 174° South 446 513 22,600 -2,580 Descending Houston Center
03:50PM 31.1164 -97.2453 192° South 397 457 19,800 -2,340 Descending Houston Center
03:51PM 31.0178 -97.2836 198° South 378 435 17,800 -2,040 Descending Houston Center
03:52PM 30.9269 -97.3200 199° South 362 417 15,700 -2,040 Descending Houston Center
03:53PM 30.8386 -97.3528 198° South 340 391 13,600 -2,100 Descending Houston Center
03:54PM 30.7436 -97.3953 201° Southwest 316 364 11,400 -1,860 Descending Houston Center
03:55PM 30.6794 -97.4464 214° Southwest 284 327 9,800 -1,800 Descending Houston Center
03:56PM 30.6156 -97.4942 213° Southwest 274 315 7,800 -1,920 Descending Houston Center
03:57PM 30.5517 -97.5400 212° Southwest 269 310 5,900 -1,800 Descending Houston Center
03:58PM 30.4906 -97.5844 212° Southwest 260 299 4,100 -960 Descending Houston Center
04:00PM 30.3892 -97.6575 212° Southwest 211 243 3,100 -360 Descending Houston Center
04:01PM 30.3317 -97.6853 203° Southwest 198 228 3,000 -600 Descending Houston Center
04:02PM 30.2872 -97.6817 176° South 170 196 1,900 -1,080 Descending Houston Center